sensor_id;sensor_type;location;lat;lon;timestamp;temperature;humidity
33741;DHT22;20065;48.380;10.892;2022-12-31T00:01:12;11.10;99.90
33741;DHT22;20065;48.380;10.892;2022-12-31T00:03:58;11.10;99.90
33741;DHT22;20065;48.380;10.892;2022-12-31T00:06:46;11.00;99.90
33741;DHT22;20065;48.380;10.892;2022-12-31T00:09:35;11.00;99.90
33741;DHT22;20065;48.380;10.892;2022-12-31T00:12:21;11.00;99.90
33741;DHT22;20065;48.380;10.892;2022-12-31T00:15:08;11.00;99.90
33741;DHT22;20065;48.380;10.892;2022-12-31T00:17:54;11.00;99.90
33741;DHT22;20065;48.380;10.892;2022-12-31T00:20:40;11.10;99.90
33741;DHT22;20065;48.380;10.892;2022-12-31T00:23:27;11.10;99.90
33741;DHT22;20065;48.380;10.892;2022-12-31T00:26:19;11.10;99.90
33741;DHT22;20065;48.380;10.892;2022-12-31T00:29:11;11.10;99.90
33741;DHT22;20065;48.380;10.892;2022-12-31T00:32:03;11.20;99.90
33741;DHT22;20065;48.380;10.892;2022-12-31T00:34:50;11.30;99.90
33741;DHT22;20065;48.380;10.892;2022-12-31T00:37:36;11.30;99.90
33741;DHT22;20065;48.380;10.892;2022-12-31T00:40:23;11.40;99.90
33741;DHT22;20065;48.380;10.892;2022-12-31T00:43:16;11.40;99.90
33741;DHT22;20065;48.380;10.892;2022-12-31T00:46:03;11.40;99.90
33741;DHT22;20065;48.380;10.892;2022-12-31T00:48:50;11.50;99.90
33741;DHT22;20065;48.380;10.892;2022-12-31T00:51:36;11.50;99.90
33741;DHT22;20065;48.380;10.892;2022-12-31T00:54:22;11.50;99.90
33741;DHT22;20065;48.380;10.892;2022-12-31T00:57:08;11.50;99.90
33741;DHT22;20065;48.380;10.892;2022-12-31T00:59:55;11.40;99.90
33741;DHT22;20065;48.380;10.892;2022-12-31T01:02:41;11.50;99.90
33741;DHT22;20065;48.380;10.892;2022-12-31T01:05:29;11.60;99.90
33741;DHT22;20065;48.380;10.892;2022-12-31T01:08:16;11.50;99.90
33741;DHT22;20065;48.380;10.892;2022-12-31T01:11:03;11.60;99.90
33741;DHT22;20065;48.380;10.892;2022-12-31T01:14:07;11.50;99.90
33741;DHT22;20065;48.380;10.892;2022-12-31T01:16:53;11.50;99.90
33741;DHT22;20065;48.380;10.892;2022-12-31T01:19:42;11.50;99.90
33741;DHT22;20065;48.380;10.892;2022-12-31T01:22:29;11.50;99.90
33741;DHT22;20065;48.380;10.892;2022-12-31T01:25:15;11.50;99.90
33741;DHT22;20065;48.380;10.892;2022-12-31T01:28:02;11.50;99.90
33741;DHT22;20065;48.380;10.892;2022-12-31T01:30:49;11.50;99.90
33741;DHT22;20065;48.380;10.892;2022-12-31T01:33:35;11.60;99.90
33741;DHT22;20065;48.380;10.892;2022-12-31T01:36:27;11.60;99.90
33741;DHT22;20065;48.380;10.892;2022-12-31T01:39:14;11.50;99.90
33741;DHT22;20065;48.380;10.892;2022-12-31T01:42:00;11.50;99.90
33741;DHT22;20065;48.380;10.892;2022-12-31T01:44:50;11.50;99.90
33741;DHT22;20065;48.380;10.892;2022-12-31T01:47:41;11.50;99.90
33741;DHT22;20065;48.380;10.892;2022-12-31T01:50:30;11.40;99.90
33741;DHT22;20065;48.380;10.892;2022-12-31T01:53:19;11.50;99.90
33741;DHT22;20065;48.380;10.892;2022-12-31T01:56:08;11.50;99.90
33741;DHT22;20065;48.380;10.892;2022-12-31T01:58:56;11.60;99.90
33741;DHT22;20065;48.380;10.892;2022-12-31T02:01:43;11.60;99.90
33741;DHT22;20065;48.380;10.892;2022-12-31T02:04:31;11.70;99.90
33741;DHT22;20065;48.380;10.892;2022-12-31T02:07:17;11.70;99.90
33741;DHT22;20065;48.380;10.892;2022-12-31T02:10:04;11.80;99.90
33741;DHT22;20065;48.380;10.892;2022-12-31T02:12:51;11.90;99.90
33741;DHT22;20065;48.380;10.892;2022-12-31T02:15:49;11.90;99.90
33741;DHT22;20065;48.380;10.892;2022-12-31T02:18:48;12.00;99.90
33741;DHT22;20065;48.380;10.892;2022-12-31T02:30:26;12.00;99.90
33741;DHT22;20065;48.380;10.892;2022-12-31T02:33:27;12.00;99.90
33741;DHT22;20065;48.380;10.892;2022-12-31T02:36:24;12.00;99.90
33741;DHT22;20065;48.380;10.892;2022-12-31T02:39:16;12.00;99.90
33741;DHT22;20065;48.380;10.892;2022-12-31T02:42:05;12.00;99.90
33741;DHT22;20065;48.380;10.892;2022-12-31T02:44:54;12.00;99.90
33741;DHT22;20065;48.380;10.892;2022-12-31T02:50:43;12.20;99.90
33741;DHT22;20065;48.380;10.892;2022-12-31T02:59:56;12.00;99.90
33741;DHT22;20065;48.380;10.892;2022-12-31T03:03:02;12.00;99.90
33741;DHT22;20065;48.380;10.892;2022-12-31T03:05:49;11.90;99.90
33741;DHT22;20065;48.380;10.892;2022-12-31T03:08:35;11.90;99.90
33741;DHT22;20065;48.380;10.892;2022-12-31T03:11:45;11.80;99.90
33741;DHT22;20065;48.380;10.892;2022-12-31T03:14:52;11.80;99.90
33741;DHT22;20065;48.380;10.892;2022-12-31T03:17:41;11.80;99.90
33741;DHT22;20065;48.380;10.892;2022-12-31T03:20:34;11.70;99.90
33741;DHT22;20065;48.380;10.892;2022-12-31T03:23:43;11.70;99.90
33741;DHT22;20065;48.380;10.892;2022-12-31T03:26:34;11.70;99.90
33741;DHT22;20065;48.380;10.892;2022-12-31T03:29:21;11.70;99.90
33741;DHT22;20065;48.380;10.892;2022-12-31T03:32:07;11.60;99.90
33741;DHT22;20065;48.380;10.892;2022-12-31T03:34:53;11.50;99.90
33741;DHT22;20065;48.380;10.892;2022-12-31T03:37:41;11.50;99.90
33741;DHT22;20065;48.380;10.892;2022-12-31T03:40:29;11.60;99.90
33741;DHT22;20065;48.380;10.892;2022-12-31T03:43:16;11.60;99.90
33741;DHT22;20065;48.380;10.892;2022-12-31T03:46:04;11.70;99.90
33741;DHT22;20065;48.380;10.892;2022-12-31T03:48:50;11.70;99.90
33741;DHT22;20065;48.380;10.892;2022-12-31T03:51:36;11.80;99.90
33741;DHT22;20065;48.380;10.892;2022-12-31T03:54:22;11.80;99.90
33741;DHT22;20065;48.380;10.892;2022-12-31T03:57:08;11.90;99.90
33741;DHT22;20065;48.380;10.892;2022-12-31T03:59:54;11.90;99.90
33741;DHT22;20065;48.380;10.892;2022-12-31T04:02:40;11.90;99.90
33741;DHT22;20065;48.380;10.892;2022-12-31T04:05:28;12.00;99.90
33741;DHT22;20065;48.380;10.892;2022-12-31T04:08:14;12.10;99.90
33741;DHT22;20065;48.380;10.892;2022-12-31T04:11:00;12.20;99.90
33741;DHT22;20065;48.380;10.892;2022-12-31T04:13:46;12.20;99.90
33741;DHT22;20065;48.380;10.892;2022-12-31T04:16:32;12.40;99.90
33741;DHT22;20065;48.380;10.892;2022-12-31T04:19:20;12.50;99.90
33741;DHT22;20065;48.380;10.892;2022-12-31T04:22:06;12.50;99.90
33741;DHT22;20065;48.380;10.892;2022-12-31T04:24:52;12.60;99.90
33741;DHT22;20065;48.380;10.892;2022-12-31T04:27:39;12.60;99.90
33741;DHT22;20065;48.380;10.892;2022-12-31T04:30:27;12.60;99.90
33741;DHT22;20065;48.380;10.892;2022-12-31T04:33:13;12.70;99.90
33741;DHT22;20065;48.380;10.892;2022-12-31T04:36:00;12.70;99.90
33741;DHT22;20065;48.380;10.892;2022-12-31T04:38:47;12.80;99.90
33741;DHT22;20065;48.380;10.892;2022-12-31T04:41:33;12.80;99.90
33741;DHT22;20065;48.380;10.892;2022-12-31T04:44:19;12.80;99.90
33741;DHT22;20065;48.380;10.892;2022-12-31T04:47:05;12.90;99.90
33741;DHT22;20065;48.380;10.892;2022-12-31T04:49:52;12.90;99.90
33741;DHT22;20065;48.380;10.892;2022-12-31T04:52:38;12.80;99.90
33741;DHT22;20065;48.380;10.892;2022-12-31T04:55:24;12.80;99.90
33741;DHT22;20065;48.380;10.892;2022-12-31T04:58:10;12.80;99.90
33741;DHT22;20065;48.380;10.892;2022-12-31T05:00:57;12.80;99.90
33741;DHT22;20065;48.380;10.892;2022-12-31T05:03:43;12.80;99.90
33741;DHT22;20065;48.380;10.892;2022-12-31T05:06:29;12.80;99.90
33741;DHT22;20065;48.380;10.892;2022-12-31T05:09:15;12.90;99.90
33741;DHT22;20065;48.380;10.892;2022-12-31T05:12:01;12.90;99.90
33741;DHT22;20065;48.380;10.892;2022-12-31T05:14:47;12.90;99.90
33741;DHT22;20065;48.380;10.892;2022-12-31T05:17:33;13.00;99.90
33741;DHT22;20065;48.380;10.892;2022-12-31T05:20:19;13.10;99.90
33741;DHT22;20065;48.380;10.892;2022-12-31T05:23:06;13.20;99.90
33741;DHT22;20065;48.380;10.892;2022-12-31T05:25:52;13.20;99.90
33741;DHT22;20065;48.380;10.892;2022-12-31T05:28:38;13.30;99.90
33741;DHT22;20065;48.380;10.892;2022-12-31T05:31:25;13.20;99.90
33741;DHT22;20065;48.380;10.892;2022-12-31T05:34:11;13.20;99.90
33741;DHT22;20065;48.380;10.892;2022-12-31T05:36:57;13.20;99.90
33741;DHT22;20065;48.380;10.892;2022-12-31T05:39:43;13.10;99.90
33741;DHT22;20065;48.380;10.892;2022-12-31T05:42:29;13.10;99.90
33741;DHT22;20065;48.380;10.892;2022-12-31T05:45:16;13.00;99.90
33741;DHT22;20065;48.380;10.892;2022-12-31T05:48:04;13.00;99.90
33741;DHT22;20065;48.380;10.892;2022-12-31T05:50:51;13.00;99.90
33741;DHT22;20065;48.380;10.892;2022-12-31T05:53:37;13.10;99.90
33741;DHT22;20065;48.380;10.892;2022-12-31T05:56:23;13.20;99.90
33741;DHT22;20065;48.380;10.892;2022-12-31T05:59:09;13.20;99.90
33741;DHT22;20065;48.380;10.892;2022-12-31T06:01:55;13.20;99.90
33741;DHT22;20065;48.380;10.892;2022-12-31T06:04:41;13.20;99.90
33741;DHT22;20065;48.380;10.892;2022-12-31T06:07:27;13.20;99.90
33741;DHT22;20065;48.380;10.892;2022-12-31T06:10:14;13.20;99.90
33741;DHT22;20065;48.380;10.892;2022-12-31T06:13:00;13.20;99.90
33741;DHT22;20065;48.380;10.892;2022-12-31T06:15:46;13.20;99.90
33741;DHT22;20065;48.380;10.892;2022-12-31T06:18:32;13.20;99.90
33741;DHT22;20065;48.380;10.892;2022-12-31T06:21:19;13.20;99.90
33741;DHT22;20065;48.380;10.892;2022-12-31T06:24:06;13.20;99.90
33741;DHT22;20065;48.380;10.892;2022-12-31T06:26:52;13.20;99.90
33741;DHT22;20065;48.380;10.892;2022-12-31T06:29:38;13.10;99.90
33741;DHT22;20065;48.380;10.892;2022-12-31T06:32:24;13.20;99.90
33741;DHT22;20065;48.380;10.892;2022-12-31T06:35:11;13.20;99.90
33741;DHT22;20065;48.380;10.892;2022-12-31T06:37:57;13.20;99.90
33741;DHT22;20065;48.380;10.892;2022-12-31T06:40:44;13.30;99.90
33741;DHT22;20065;48.380;10.892;2022-12-31T06:43:30;13.30;99.90
33741;DHT22;20065;48.380;10.892;2022-12-31T06:46:17;13.40;99.90
33741;DHT22;20065;48.380;10.892;2022-12-31T06:49:03;13.50;99.90
33741;DHT22;20065;48.380;10.892;2022-12-31T06:51:49;13.50;99.90
33741;DHT22;20065;48.380;10.892;2022-12-31T06:54:35;13.60;99.90
33741;DHT22;20065;48.380;10.892;2022-12-31T06:57:22;13.60;99.90
33741;DHT22;20065;48.380;10.892;2022-12-31T07:00:09;13.60;99.90
33741;DHT22;20065;48.380;10.892;2022-12-31T07:06:27;13.70;99.90
33741;DHT22;20065;48.380;10.892;2022-12-31T07:09:30;13.80;99.90
33741;DHT22;20065;48.380;10.892;2022-12-31T07:21:53;14.00;99.90
33741;DHT22;20065;48.380;10.892;2022-12-31T07:24:44;14.10;99.90
33741;DHT22;20065;48.380;10.892;2022-12-31T07:31:26;14.00;99.90
33741;DHT22;20065;48.380;10.892;2022-12-31T07:37:41;14.10;99.90
33741;DHT22;20065;48.380;10.892;2022-12-31T07:49:23;14.00;99.90
33741;DHT22;20065;48.380;10.892;2022-12-31T07:52:11;14.00;99.90
33741;DHT22;20065;48.380;10.892;2022-12-31T07:54:57;14.00;99.90
33741;DHT22;20065;48.380;10.892;2022-12-31T07:57:54;14.00;99.90
33741;DHT22;20065;48.380;10.892;2022-12-31T08:00:42;14.00;99.90
33741;DHT22;20065;48.380;10.892;2022-12-31T08:03:56;14.00;99.90
33741;DHT22;20065;48.380;10.892;2022-12-31T08:12:57;13.80;99.90
33741;DHT22;20065;48.380;10.892;2022-12-31T08:15:48;13.80;99.90
33741;DHT22;20065;48.380;10.892;2022-12-31T08:18:34;13.80;99.90
33741;DHT22;20065;48.380;10.892;2022-12-31T08:27:36;13.70;99.90
33741;DHT22;20065;48.380;10.892;2022-12-31T08:34:11;13.50;99.90
33741;DHT22;20065;48.380;10.892;2022-12-31T08:37:11;13.50;99.90
33741;DHT22;20065;48.380;10.892;2022-12-31T08:49:28;13.50;99.90
33741;DHT22;20065;48.380;10.892;2022-12-31T08:52:20;13.60;99.90
33741;DHT22;20065;48.380;10.892;2022-12-31T08:55:11;13.60;99.90
33741;DHT22;20065;48.380;10.892;2022-12-31T09:01:06;13.70;99.90
33741;DHT22;20065;48.380;10.892;2022-12-31T09:03:58;13.70;99.90
33741;DHT22;20065;48.380;10.892;2022-12-31T09:07:00;13.70;99.90
33741;DHT22;20065;48.380;10.892;2022-12-31T09:13:20;13.90;99.90
33741;DHT22;20065;48.380;10.892;2022-12-31T09:19:04;14.00;99.90
33741;DHT22;20065;48.380;10.892;2022-12-31T09:21:50;14.10;99.90
33741;DHT22;20065;48.380;10.892;2022-12-31T09:24:37;14.30;99.90
33741;DHT22;20065;48.380;10.892;2022-12-31T09:30:18;14.40;99.90
33741;DHT22;20065;48.380;10.892;2022-12-31T09:33:11;14.30;99.90
33741;DHT22;20065;48.380;10.892;2022-12-31T09:36:06;14.40;99.90
33741;DHT22;20065;48.380;10.892;2022-12-31T10:01:07;14.50;99.90
33741;DHT22;20065;48.380;10.892;2022-12-31T10:15:47;14.00;99.90
33741;DHT22;20065;48.380;10.892;2022-12-31T10:19:32;14.20;99.90
33741;DHT22;20065;48.380;10.892;2022-12-31T10:22:37;14.50;99.90
33741;DHT22;20065;48.380;10.892;2022-12-31T10:25:39;14.70;99.90
33741;DHT22;20065;48.380;10.892;2022-12-31T11:14:22;15.70;99.90
33741;DHT22;20065;48.380;10.892;2022-12-31T11:17:37;15.80;99.90
33741;DHT22;20065;48.380;10.892;2022-12-31T11:33:01;16.10;99.90
33741;DHT22;20065;48.380;10.892;2022-12-31T11:36:12;16.00;99.90
33741;DHT22;20065;48.380;10.892;2022-12-31T12:03:03;16.70;99.90
33741;DHT22;20065;48.380;10.892;2022-12-31T12:05:50;16.80;99.90
33741;DHT22;20065;48.380;10.892;2022-12-31T12:08:37;16.90;99.90
33741;DHT22;20065;48.380;10.892;2022-12-31T12:11:25;16.90;99.90
33741;DHT22;20065;48.380;10.892;2022-12-31T12:14:32;17.00;99.90
33741;DHT22;20065;48.380;10.892;2022-12-31T12:17:28;17.10;99.90
33741;DHT22;20065;48.380;10.892;2022-12-31T12:20:43;17.10;99.90
33741;DHT22;20065;48.380;10.892;2022-12-31T12:23:30;17.10;99.90
33741;DHT22;20065;48.380;10.892;2022-12-31T12:26:38;17.10;99.90
33741;DHT22;20065;48.380;10.892;2022-12-31T12:29:31;17.00;99.90
33741;DHT22;20065;48.380;10.892;2022-12-31T12:32:23;17.00;99.90
33741;DHT22;20065;48.380;10.892;2022-12-31T12:35:22;17.00;99.90
33741;DHT22;20065;48.380;10.892;2022-12-31T12:38:17;17.00;99.90
33741;DHT22;20065;48.380;10.892;2022-12-31T12:41:09;17.10;99.90
33741;DHT22;20065;48.380;10.892;2022-12-31T12:44:13;17.20;99.90
33741;DHT22;20065;48.380;10.892;2022-12-31T12:47:02;17.20;99.90
33741;DHT22;20065;48.380;10.892;2022-12-31T12:49:52;17.20;99.90
33741;DHT22;20065;48.380;10.892;2022-12-31T12:53:06;17.20;99.90
33741;DHT22;20065;48.380;10.892;2022-12-31T13:06:16;17.30;99.90
33741;DHT22;20065;48.380;10.892;2022-12-31T13:12:23;17.30;99.90
33741;DHT22;20065;48.380;10.892;2022-12-31T13:30:17;17.40;99.90
33741;DHT22;20065;48.380;10.892;2022-12-31T13:33:20;17.50;99.90
33741;DHT22;20065;48.380;10.892;2022-12-31T13:36:12;17.50;99.90
33741;DHT22;20065;48.380;10.892;2022-12-31T13:39:05;17.40;99.90
33741;DHT22;20065;48.380;10.892;2022-12-31T13:41:57;17.40;99.90
33741;DHT22;20065;48.380;10.892;2022-12-31T13:44:50;17.30;99.90
33741;DHT22;20065;48.380;10.892;2022-12-31T13:47:47;17.40;99.90
33741;DHT22;20065;48.380;10.892;2022-12-31T13:50:49;17.40;99.90
33741;DHT22;20065;48.380;10.892;2022-12-31T13:54:40;17.40;99.90
33741;DHT22;20065;48.380;10.892;2022-12-31T14:00:23;17.20;99.90
33741;DHT22;20065;48.380;10.892;2022-12-31T14:03:21;17.10;99.90
33741;DHT22;20065;48.380;10.892;2022-12-31T14:09:21;17.10;99.90
33741;DHT22;20065;48.380;10.892;2022-12-31T14:12:31;17.10;99.90
33741;DHT22;20065;48.380;10.892;2022-12-31T14:15:23;17.00;99.90
33741;DHT22;20065;48.380;10.892;2022-12-31T14:18:38;17.00;99.90
33741;DHT22;20065;48.380;10.892;2022-12-31T14:24:41;16.80;99.90
33741;DHT22;20065;48.380;10.892;2022-12-31T14:27:35;16.80;99.90
33741;DHT22;20065;48.380;10.892;2022-12-31T14:30:25;16.70;99.90
33741;DHT22;20065;48.380;10.892;2022-12-31T14:37:06;16.70;99.90
33741;DHT22;20065;48.380;10.892;2022-12-31T14:40:00;16.60;99.90
33741;DHT22;20065;48.380;10.892;2022-12-31T14:52:34;16.20;99.90
33741;DHT22;20065;48.380;10.892;2022-12-31T14:58:23;16.20;99.90
33741;DHT22;20065;48.380;10.892;2022-12-31T15:01:19;16.20;99.90
33741;DHT22;20065;48.380;10.892;2022-12-31T15:04:13;16.10;99.90
33741;DHT22;20065;48.380;10.892;2022-12-31T15:10:20;16.10;99.90
33741;DHT22;20065;48.380;10.892;2022-12-31T15:19:54;15.80;99.90
33741;DHT22;20065;48.380;10.892;2022-12-31T15:22:49;15.70;99.90
33741;DHT22;20065;48.380;10.892;2022-12-31T15:25:37;15.60;99.90
33741;DHT22;20065;48.380;10.892;2022-12-31T15:28:34;15.50;99.90
33741;DHT22;20065;48.380;10.892;2022-12-31T15:31:21;15.40;99.90
33741;DHT22;20065;48.380;10.892;2022-12-31T15:37:35;15.10;99.90
33741;DHT22;20065;48.380;10.892;2022-12-31T15:40:21;15.00;99.90
33741;DHT22;20065;48.380;10.892;2022-12-31T15:46:06;15.00;99.90
33741;DHT22;20065;48.380;10.892;2022-12-31T15:49:09;14.90;99.90
33741;DHT22;20065;48.380;10.892;2022-12-31T15:52:02;14.80;99.90
33741;DHT22;20065;48.380;10.892;2022-12-31T15:54:51;14.80;99.90
33741;DHT22;20065;48.380;10.892;2022-12-31T15:57:40;14.80;99.90
33741;DHT22;20065;48.380;10.892;2022-12-31T16:00:35;14.80;99.90
33741;DHT22;20065;48.380;10.892;2022-12-31T16:03:28;14.70;99.90
33741;DHT22;20065;48.380;10.892;2022-12-31T16:06:15;14.70;99.90
33741;DHT22;20065;48.380;10.892;2022-12-31T16:09:04;14.50;99.90
33741;DHT22;20065;48.380;10.892;2022-12-31T16:11:53;14.60;99.90
33741;DHT22;20065;48.380;10.892;2022-12-31T16:14:47;14.60;99.90
33741;DHT22;20065;48.380;10.892;2022-12-31T16:17:35;14.50;99.90
33741;DHT22;20065;48.380;10.892;2022-12-31T16:20:26;14.50;99.90
33741;DHT22;20065;48.380;10.892;2022-12-31T16:23:26;14.40;99.90
33741;DHT22;20065;48.380;10.892;2022-12-31T16:26:12;14.30;99.90
33741;DHT22;20065;48.380;10.892;2022-12-31T16:28:59;14.20;99.90
33741;DHT22;20065;48.380;10.892;2022-12-31T16:31:50;14.10;99.90
33741;DHT22;20065;48.380;10.892;2022-12-31T16:34:38;14.10;99.90
33741;DHT22;20065;48.380;10.892;2022-12-31T16:37:24;14.00;99.90
33741;DHT22;20065;48.380;10.892;2022-12-31T16:40:20;14.00;99.90
33741;DHT22;20065;48.380;10.892;2022-12-31T16:43:23;14.00;99.90
33741;DHT22;20065;48.380;10.892;2022-12-31T16:46:22;13.90;99.90
33741;DHT22;20065;48.380;10.892;2022-12-31T16:49:19;13.90;99.90
33741;DHT22;20065;48.380;10.892;2022-12-31T16:52:23;13.80;99.90
33741;DHT22;20065;48.380;10.892;2022-12-31T16:55:18;13.80;99.90
33741;DHT22;20065;48.380;10.892;2022-12-31T17:01:22;13.70;99.90
33741;DHT22;20065;48.380;10.892;2022-12-31T17:04:14;13.70;99.90
33741;DHT22;20065;48.380;10.892;2022-12-31T17:13:20;13.60;99.90
33741;DHT22;20065;48.380;10.892;2022-12-31T17:16:08;13.60;99.90
33741;DHT22;20065;48.380;10.892;2022-12-31T17:18:54;13.60;99.90
33741;DHT22;20065;48.380;10.892;2022-12-31T17:21:45;13.50;99.90
33741;DHT22;20065;48.380;10.892;2022-12-31T17:24:32;13.60;99.90
33741;DHT22;20065;48.380;10.892;2022-12-31T17:27:19;13.60;99.90
33741;DHT22;20065;48.380;10.892;2022-12-31T17:30:36;13.60;99.90
33741;DHT22;20065;48.380;10.892;2022-12-31T17:36:19;13.50;99.90
33741;DHT22;20065;48.380;10.892;2022-12-31T17:39:20;13.40;99.90
33741;DHT22;20065;48.380;10.892;2022-12-31T17:42:11;13.40;99.90
33741;DHT22;20065;48.380;10.892;2022-12-31T17:45:05;13.50;99.90
33741;DHT22;20065;48.380;10.892;2022-12-31T17:47:56;13.40;99.90
33741;DHT22;20065;48.380;10.892;2022-12-31T17:50:49;13.40;99.90
33741;DHT22;20065;48.380;10.892;2022-12-31T17:53:36;13.40;99.90
33741;DHT22;20065;48.380;10.892;2022-12-31T17:56:22;13.40;99.90
33741;DHT22;20065;48.380;10.892;2022-12-31T17:59:20;13.30;99.90
33741;DHT22;20065;48.380;10.892;2022-12-31T18:02:10;13.30;99.90
33741;DHT22;20065;48.380;10.892;2022-12-31T18:04:57;13.30;99.90
33741;DHT22;20065;48.380;10.892;2022-12-31T18:07:43;13.30;99.90
33741;DHT22;20065;48.380;10.892;2022-12-31T18:10:33;13.30;99.90
33741;DHT22;20065;48.380;10.892;2022-12-31T18:13:25;13.30;99.90
33741;DHT22;20065;48.380;10.892;2022-12-31T18:16:12;13.20;99.90
33741;DHT22;20065;48.380;10.892;2022-12-31T18:18:59;13.20;99.90
33741;DHT22;20065;48.380;10.892;2022-12-31T18:21:45;13.10;99.90
33741;DHT22;20065;48.380;10.892;2022-12-31T18:24:32;13.20;99.90
33741;DHT22;20065;48.380;10.892;2022-12-31T18:27:19;13.20;99.90
33741;DHT22;20065;48.380;10.892;2022-12-31T18:30:05;13.10;99.90
33741;DHT22;20065;48.380;10.892;2022-12-31T18:32:52;13.20;99.90
33741;DHT22;20065;48.380;10.892;2022-12-31T18:35:39;13.10;99.90
33741;DHT22;20065;48.380;10.892;2022-12-31T18:38:25;13.10;99.90
33741;DHT22;20065;48.380;10.892;2022-12-31T18:41:18;13.10;99.90
33741;DHT22;20065;48.380;10.892;2022-12-31T18:44:04;13.00;99.90
33741;DHT22;20065;48.380;10.892;2022-12-31T18:46:50;13.00;99.90
33741;DHT22;20065;48.380;10.892;2022-12-31T18:49:36;13.10;99.90
33741;DHT22;20065;48.380;10.892;2022-12-31T18:52:23;13.10;99.90
33741;DHT22;20065;48.380;10.892;2022-12-31T18:55:23;13.10;99.90
33741;DHT22;20065;48.380;10.892;2022-12-31T18:58:10;13.10;99.90
33741;DHT22;20065;48.380;10.892;2022-12-31T19:00:56;13.10;99.90
33741;DHT22;20065;48.380;10.892;2022-12-31T19:03:42;13.20;99.90
33741;DHT22;20065;48.380;10.892;2022-12-31T19:06:29;13.20;99.90
33741;DHT22;20065;48.380;10.892;2022-12-31T19:09:15;13.20;99.90
33741;DHT22;20065;48.380;10.892;2022-12-31T19:12:02;13.20;99.90
33741;DHT22;20065;48.380;10.892;2022-12-31T19:14:48;13.10;99.90
33741;DHT22;20065;48.380;10.892;2022-12-31T19:17:34;13.00;99.90
33741;DHT22;20065;48.380;10.892;2022-12-31T19:20:20;13.00;99.90
33741;DHT22;20065;48.380;10.892;2022-12-31T19:23:17;12.90;99.90
33741;DHT22;20065;48.380;10.892;2022-12-31T19:26:04;12.80;99.90
33741;DHT22;20065;48.380;10.892;2022-12-31T19:28:50;12.80;99.90
33741;DHT22;20065;48.380;10.892;2022-12-31T19:31:36;12.50;99.90
33741;DHT22;20065;48.380;10.892;2022-12-31T19:34:22;12.40;99.90
33741;DHT22;20065;48.380;10.892;2022-12-31T19:37:14;12.40;99.90
33741;DHT22;20065;48.380;10.892;2022-12-31T19:40:00;12.40;99.90
33741;DHT22;20065;48.380;10.892;2022-12-31T19:42:47;12.40;99.90
33741;DHT22;20065;48.380;10.892;2022-12-31T19:45:33;12.50;99.90
33741;DHT22;20065;48.380;10.892;2022-12-31T19:48:22;12.40;99.90
33741;DHT22;20065;48.380;10.892;2022-12-31T19:51:15;12.50;99.90
33741;DHT22;20065;48.380;10.892;2022-12-31T19:54:01;12.60;99.90
33741;DHT22;20065;48.380;10.892;2022-12-31T19:56:53;12.40;99.90
33741;DHT22;20065;48.380;10.892;2022-12-31T19:59:40;12.40;99.90
33741;DHT22;20065;48.380;10.892;2022-12-31T20:02:26;12.30;99.90
33741;DHT22;20065;48.380;10.892;2022-12-31T20:05:14;12.20;99.90
33741;DHT22;20065;48.380;10.892;2022-12-31T20:08:01;12.20;99.90
33741;DHT22;20065;48.380;10.892;2022-12-31T20:10:47;12.20;99.90
33741;DHT22;20065;48.380;10.892;2022-12-31T20:13:35;12.20;99.90
33741;DHT22;20065;48.380;10.892;2022-12-31T20:16:23;12.20;99.90
33741;DHT22;20065;48.380;10.892;2022-12-31T20:19:11;12.20;99.90
33741;DHT22;20065;48.380;10.892;2022-12-31T20:21:57;12.10;99.90
33741;DHT22;20065;48.380;10.892;2022-12-31T20:24:44;12.10;99.90
33741;DHT22;20065;48.380;10.892;2022-12-31T20:27:30;12.10;99.90
33741;DHT22;20065;48.380;10.892;2022-12-31T20:30:16;12.00;99.90
33741;DHT22;20065;48.380;10.892;2022-12-31T20:33:04;11.90;99.90
33741;DHT22;20065;48.380;10.892;2022-12-31T20:35:50;11.90;99.90
33741;DHT22;20065;48.380;10.892;2022-12-31T20:38:37;11.90;99.90
33741;DHT22;20065;48.380;10.892;2022-12-31T20:41:23;11.90;99.90
33741;DHT22;20065;48.380;10.892;2022-12-31T20:44:11;12.00;99.90
33741;DHT22;20065;48.380;10.892;2022-12-31T20:46:57;12.00;99.90
33741;DHT22;20065;48.380;10.892;2022-12-31T20:49:43;12.10;99.90
33741;DHT22;20065;48.380;10.892;2022-12-31T20:52:29;12.00;99.90
33741;DHT22;20065;48.380;10.892;2022-12-31T20:55:16;11.90;99.90
33741;DHT22;20065;48.380;10.892;2022-12-31T20:58:10;11.90;99.90
33741;DHT22;20065;48.380;10.892;2022-12-31T21:00:56;11.90;99.90
33741;DHT22;20065;48.380;10.892;2022-12-31T21:03:44;11.90;99.90
33741;DHT22;20065;48.380;10.892;2022-12-31T21:06:30;11.90;99.90
33741;DHT22;20065;48.380;10.892;2022-12-31T21:09:16;11.90;99.90
33741;DHT22;20065;48.380;10.892;2022-12-31T21:12:03;12.00;99.90
33741;DHT22;20065;48.380;10.892;2022-12-31T21:15:09;12.10;99.90
33741;DHT22;20065;48.380;10.892;2022-12-31T21:17:55;12.00;99.90
33741;DHT22;20065;48.380;10.892;2022-12-31T21:20:51;12.00;99.90
33741;DHT22;20065;48.380;10.892;2022-12-31T21:23:38;11.90;99.90
33741;DHT22;20065;48.380;10.892;2022-12-31T21:26:24;11.80;99.90
33741;DHT22;20065;48.380;10.892;2022-12-31T21:29:10;11.70;99.90
33741;DHT22;20065;48.380;10.892;2022-12-31T21:31:56;11.70;99.90
33741;DHT22;20065;48.380;10.892;2022-12-31T21:34:43;11.60;99.90
33741;DHT22;20065;48.380;10.892;2022-12-31T21:37:29;11.60;99.90
33741;DHT22;20065;48.380;10.892;2022-12-31T21:40:15;11.60;99.90
33741;DHT22;20065;48.380;10.892;2022-12-31T21:43:01;11.60;99.90
33741;DHT22;20065;48.380;10.892;2022-12-31T21:46:05;11.70;99.90
33741;DHT22;20065;48.380;10.892;2022-12-31T21:48:56;11.70;99.90
33741;DHT22;20065;48.380;10.892;2022-12-31T21:51:42;11.70;99.90
33741;DHT22;20065;48.380;10.892;2022-12-31T21:54:47;11.70;99.90
33741;DHT22;20065;48.380;10.892;2022-12-31T21:57:52;11.60;99.90
33741;DHT22;20065;48.380;10.892;2022-12-31T22:00:39;11.60;99.90
33741;DHT22;20065;48.380;10.892;2022-12-31T22:03:44;11.60;99.90
33741;DHT22;20065;48.380;10.892;2022-12-31T22:06:31;11.60;99.90
33741;DHT22;20065;48.380;10.892;2022-12-31T22:09:18;11.60;99.90
33741;DHT22;20065;48.380;10.892;2022-12-31T22:12:05;11.50;99.90
33741;DHT22;20065;48.380;10.892;2022-12-31T22:14:51;11.50;99.90
33741;DHT22;20065;48.380;10.892;2022-12-31T22:17:37;11.50;99.90
33741;DHT22;20065;48.380;10.892;2022-12-31T22:20:23;11.50;99.90
33741;DHT22;20065;48.380;10.892;2022-12-31T22:23:09;11.50;99.90